Aviation Digital Data Service (ADDS)

Output produced by METARs form (2307 UTC 23 October 2019)
found at http://www.aviationweather.gov/metar/data/
 
METAR text: KTPA 232253Z 04004KT 10SM FEW045 FEW160 BKN250 27/17 A3005 RMK AO2 SLP174 CB DSNT SE-S T02720172
Conditions at: KTPA (TAMPA , FL, US) observed 2253 UTC 23 October 2019
Temperature: 27.2°C (81°F)
Dewpoint: 17.2°C (63°F) [RH = 54%]
Pressure (altimeter): 30.05 inches Hg (1017.7 mb)
[Sea-level pressure: 1017.4 mb]
Winds: from the NE (40 degrees) at 5 MPH (4 knots; 2.1 m/s)
Visibility: 10 or more miles (16+ km)
Ceiling: 25000 feet AGL
Clouds: few clouds at 4500 feet AGL
few clouds at 16000 feet AGL
broken clouds at 25000 feet AGL
Weather: no significant weather observed at this time

METAR text: KTPA 232153Z 07004KT 10SM FEW045 FEW160 BKN280 28/17 A3003 RMK AO2 SLP169 CB DSNT SE T02830167
Conditions at: KTPA (TAMPA , FL, US) observed 2153 UTC 23 October 2019
Temperature: 28.3°C (83°F)
Dewpoint: 16.7°C (62°F) [RH = 49%]
Pressure (altimeter): 30.03 inches Hg (1017.0 mb)
[Sea-level pressure: 1016.9 mb]
Winds: from the ENE (70 degrees) at 5 MPH (4 knots; 2.1 m/s)
Visibility: 10 or more miles (16+ km)
Ceiling: 28000 feet AGL
Clouds: few clouds at 4500 feet AGL
few clouds at 16000 feet AGL
broken clouds at 28000 feet AGL
Weather: no significant weather observed at this time

METAR text: KTPA 232053Z 06006KT 10SM FEW140 SCT280 29/17 A3003 RMK AO2 SLP169 T02890172 55006
Conditions at: KTPA (TAMPA , FL, US) observed 2053 UTC 23 October 2019
Temperature: 28.9°C (84°F)
Dewpoint: 17.2°C (63°F) [RH = 49%]
Pressure (altimeter): 30.03 inches Hg (1017.0 mb)
[Sea-level pressure: 1016.9 mb]
Winds: from the ENE (60 degrees) at 7 MPH (6 knots; 3.1 m/s)
Visibility: 10 or more miles (16+ km)
Ceiling: at least 12,000 feet AGL
Clouds: few clouds at 14000 feet AGL
scattered clouds at 28000 feet AGL
Weather: no significant weather observed at this time

METAR text: KTPA 231953Z 04006KT 10SM FEW140 SCT280 29/16 A3003 RMK AO2 SLP168 T02890161
Conditions at: KTPA (TAMPA , FL, US) observed 1953 UTC 23 October 2019
Temperature: 28.9°C (84°F)
Dewpoint: 16.1°C (61°F) [RH = 46%]
Pressure (altimeter): 30.03 inches Hg (1017.0 mb)
[Sea-level pressure: 1016.8 mb]
Winds: from the NE (40 degrees) at 7 MPH (6 knots; 3.1 m/s)
Visibility: 10 or more miles (16+ km)
Ceiling: at least 12,000 feet AGL
Clouds: few clouds at 14000 feet AGL
scattered clouds at 28000 feet AGL
Weather: no significant weather observed at this time

METAR text: KTPA 231853Z 09006KT 10SM SCT280 28/16 A3004 RMK AO2 SLP170 T02830156
Conditions at: KTPA (TAMPA , FL, US) observed 1853 UTC 23 October 2019
Temperature: 28.3°C (83°F)
Dewpoint: 15.6°C (60°F) [RH = 46%]
Pressure (altimeter): 30.04 inches Hg (1017.4 mb)
[Sea-level pressure: 1017.0 mb]
Winds: from the E (90 degrees) at 7 MPH (6 knots; 3.1 m/s)
Visibility: 10 or more miles (16+ km)
Ceiling: at least 12,000 feet AGL
Clouds: scattered clouds at 28000 feet AGL
Weather: no significant weather observed at this time

METAR text: KTPA 231753Z VRB06KT 10SM SCT250 27/14 A3005 RMK AO2 SLP175 T02720144 10278 20194 58014
Conditions at: KTPA (TAMPA , FL, US) observed 1753 UTC 23 October 2019
Temperature: 27.2°C (81°F)
Dewpoint: 14.4°C (58°F) [RH = 45%]
Pressure (altimeter): 30.05 inches Hg (1017.7 mb)
[Sea-level pressure: 1017.5 mb]
Winds: variable direction winds at 7 MPH (6 knots; 3.1 m/s)
Visibility: 10 or more miles (16+ km)
Ceiling: at least 12,000 feet AGL
Clouds: scattered clouds at 25000 feet AGL
Weather: no significant weather observed at this time

METAR text: KTPA 231653Z 03009KT 10SM SCT250 27/13 A3007 RMK AO2 SLP183 T02670128
Conditions at: KTPA (TAMPA , FL, US) observed 1653 UTC 23 October 2019
Temperature: 26.7°C (80°F)
Dewpoint: 12.8°C (55°F) [RH = 42%]
Pressure (altimeter): 30.07 inches Hg (1018.4 mb)
[Sea-level pressure: 1018.3 mb]
Winds: from the NNE (30 degrees) at 10 MPH (9 knots; 4.6 m/s)
Visibility: 10 or more miles (16+ km)
Ceiling: at least 12,000 feet AGL
Clouds: scattered clouds at 25000 feet AGL
Weather: no significant weather observed at this time

METAR text: KTPA 231553Z 03011G16KT 10SM FEW250 25/11 A3009 RMK AO2 SLP188 T02500111
Conditions at: KTPA (TAMPA , FL, US) observed 1553 UTC 23 October 2019
Temperature: 25.0°C (77°F)
Dewpoint: 11.1°C (52°F) [RH = 42%]
Pressure (altimeter): 30.09 inches Hg (1019.0 mb)
[Sea-level pressure: 1018.8 mb]
Winds: from the NNE (30 degrees) at 13 MPH (11 knots; 5.7 m/s)
gusting to 18 MPH (16 knots; 8.2 m/s)
Visibility: 10 or more miles (16+ km)
Ceiling: at least 12,000 feet AGL
Clouds: few clouds at 25000 feet AGL
Weather: no significant weather observed at this time

METAR text: KTPA 231453Z 04011KT 10SM FEW250 23/08 A3009 RMK AO2 SLP189 T02330083 50010
Conditions at: KTPA (TAMPA , FL, US) observed 1453 UTC 23 October 2019
Temperature: 23.3°C (74°F)
Dewpoint: 8.3°C (47°F) [RH = 38%]
Pressure (altimeter): 30.09 inches Hg (1019.0 mb)
[Sea-level pressure: 1018.9 mb]
Winds: from the NE (40 degrees) at 13 MPH (11 knots; 5.7 m/s)
Visibility: 10 or more miles (16+ km)
Ceiling: at least 12,000 feet AGL
Clouds: few clouds at 25000 feet AGL
Weather: no significant weather observed at this time

METAR text: KTPA 231353Z 03010G18KT 10SM FEW250 22/08 A3009 RMK AO2 SLP189 T02220083
Conditions at: KTPA (TAMPA , FL, US) observed 1353 UTC 23 October 2019
Temperature: 22.2°C (72°F)
Dewpoint: 8.3°C (47°F) [RH = 41%]
Pressure (altimeter): 30.09 inches Hg (1019.0 mb)
[Sea-level pressure: 1018.9 mb]
Winds: from the NNE (30 degrees) at 12 MPH (10 knots; 5.1 m/s)
gusting to 21 MPH (18 knots; 9.3 m/s)
Visibility: 10 or more miles (16+ km)
Ceiling: at least 12,000 feet AGL
Clouds: few clouds at 25000 feet AGL
Weather: no significant weather observed at this time

METAR text: KTPA 231253Z 02008KT 10SM FEW250 21/10 A3008 RMK AO2 SLP186 T02060100
Conditions at: KTPA (TAMPA , FL, US) observed 1253 UTC 23 October 2019
Temperature: 20.6°C (69°F)
Dewpoint: 10.0°C (50°F) [RH = 51%]
Pressure (altimeter): 30.08 inches Hg (1018.7 mb)
[Sea-level pressure: 1018.6 mb]
Winds: from the NNE (20 degrees) at 9 MPH (8 knots; 4.1 m/s)
Visibility: 10 or more miles (16+ km)
Ceiling: at least 12,000 feet AGL
Clouds: few clouds at 25000 feet AGL
Weather: no significant weather observed at this time

METAR text: KTPA 231153Z 36008KT 10SM FEW250 19/11 A3006 RMK AO2 SLP179 T01940111 10239 20194 51013
Conditions at: KTPA (TAMPA , FL, US) observed 1153 UTC 23 October 2019
Temperature: 19.4°C (67°F)
Dewpoint: 11.1°C (52°F) [RH = 59%]
Pressure (altimeter): 30.06 inches Hg (1018.0 mb)
[Sea-level pressure: 1017.9 mb]
Winds: from the N (360 degrees) at 9 MPH (8 knots; 4.1 m/s)
Visibility: 10 or more miles (16+ km)
Ceiling: at least 12,000 feet AGL
Clouds: few clouds at 25000 feet AGL
Weather: no significant weather observed at this time

METAR text: KTPA 231053Z 02008KT 10SM CLR 20/11 A3005 RMK AO2 SLP176 T02000111
Conditions at: KTPA (TAMPA , FL, US) observed 1053 UTC 23 October 2019
Temperature: 20.0°C (68°F)
Dewpoint: 11.1°C (52°F) [RH = 57%]
Pressure (altimeter): 30.05 inches Hg (1017.7 mb)
[Sea-level pressure: 1017.6 mb]
Winds: from the NNE (20 degrees) at 9 MPH (8 knots; 4.1 m/s)
Visibility: 10 or more miles (16+ km)
Ceiling: at least 12,000 feet AGL
Clouds: sky clear below 12,000 feet AGL
Weather: no significant weather observed at this time

METAR text: KTPA 230953Z 01008KT 10SM CLR 21/13 A3004 RMK AO2 SLP172 T02060128
Conditions at: KTPA (TAMPA , FL, US) observed 0953 UTC 23 October 2019
Temperature: 20.6°C (69°F)
Dewpoint: 12.8°C (55°F) [RH = 61%]
Pressure (altimeter): 30.04 inches Hg (1017.4 mb)
[Sea-level pressure: 1017.2 mb]
Winds: from the N (10 degrees) at 9 MPH (8 knots; 4.1 m/s)
Visibility: 10 or more miles (16+ km)
Ceiling: at least 12,000 feet AGL
Clouds: sky clear below 12,000 feet AGL
Weather: no significant weather observed at this time

METAR text: KTPA 230853Z 36007KT 10SM CLR 21/14 A3002
Conditions at: KTPA (TAMPA , FL, US) observed 0853 UTC 23 October 2019
Temperature: 21.0°C (70°F)
Dewpoint: 14.0°C (57°F) [RH = 64%]
Pressure (altimeter): 30.02 inches Hg (1016.7 mb)
Winds: from the N (360 degrees) at 8 MPH (7 knots; 3.6 m/s)
Visibility: 10 or more miles (16+ km)
Ceiling: at least 12,000 feet AGL
Clouds: sky clear below 12,000 feet AGL
Weather: no significant weather observed at this time

METAR text: KTPA 230753Z 36011KT 10SM FEW250 22/14 A3001 RMK AO2 SLP163 T02220139
Conditions at: KTPA (TAMPA , FL, US) observed 0753 UTC 23 October 2019
Temperature: 22.2°C (72°F)
Dewpoint: 13.9°C (57°F) [RH = 59%]
Pressure (altimeter): 30.01 inches Hg (1016.3 mb)
[Sea-level pressure: 1016.3 mb]
Winds: from the N (360 degrees) at 13 MPH (11 knots; 5.7 m/s)
Visibility: 10 or more miles (16+ km)
Ceiling: at least 12,000 feet AGL
Clouds: few clouds at 25000 feet AGL
Weather: no significant weather observed at this time

METAR text: KTPA 230653Z 36010KT 10SM FEW250 23/18 A3002 RMK AO2 SLP167 T02280183
Conditions at: KTPA (TAMPA , FL, US) observed 0653 UTC 23 October 2019
Temperature: 22.8°C (73°F)
Dewpoint: 18.3°C (65°F) [RH = 76%]
Pressure (altimeter): 30.02 inches Hg (1016.7 mb)
[Sea-level pressure: 1016.7 mb]
Winds: from the N (360 degrees) at 12 MPH (10 knots; 5.1 m/s)
Visibility: 10 or more miles (16+ km)
Ceiling: at least 12,000 feet AGL
Clouds: few clouds at 25000 feet AGL
Weather: no significant weather observed at this time

METAR text: KTPA 230553Z 35009KT 10SM FEW015 FEW250 24/22 A3003 RMK AO2 SLP167 T02390217 10261 20239 56003
Conditions at: KTPA (TAMPA , FL, US) observed 0553 UTC 23 October 2019
Temperature: 23.9°C (75°F)
Dewpoint: 21.7°C (71°F) [RH = 88%]
Pressure (altimeter): 30.03 inches Hg (1017.0 mb)
[Sea-level pressure: 1016.7 mb]
Winds: from the N (350 degrees) at 10 MPH (9 knots; 4.6 m/s)
Visibility: 10 or more miles (16+ km)
Ceiling: at least 12,000 feet AGL
Clouds: few clouds at 1500 feet AGL
few clouds at 25000 feet AGL
Weather: no significant weather observed at this time

METAR text: KTPA 230453Z 33005KT 10SM FEW015 SCT022 BKN250 25/23 A3003 RMK AO2 SLP167 T02500228 403110244
Conditions at: KTPA (TAMPA , FL, US) observed 0453 UTC 23 October 2019
Temperature: 25.0°C (77°F)
Dewpoint: 22.8°C (73°F) [RH = 88%]
Pressure (altimeter): 30.03 inches Hg (1017.0 mb)
[Sea-level pressure: 1016.7 mb]
Winds: from the NNW (330 degrees) at 6 MPH (5 knots; 2.6 m/s)
Visibility: 10 or more miles (16+ km)
Ceiling: 25000 feet AGL
Clouds: few clouds at 1500 feet AGL
scattered clouds at 2200 feet AGL
broken clouds at 25000 feet AGL
Weather: no significant weather observed at this time

METAR text: KTPA 230353Z 01004KT 10SM FEW010 SCT250 25/23 A3003 RMK AO2 SLP167 T02500233
Conditions at: KTPA (TAMPA , FL, US) observed 0353 UTC 23 October 2019
Temperature: 25.0°C (77°F)
Dewpoint: 23.3°C (74°F) [RH = 90%]
Pressure (altimeter): 30.03 inches Hg (1017.0 mb)
[Sea-level pressure: 1016.7 mb]
Winds: from the N (10 degrees) at 5 MPH (4 knots; 2.1 m/s)
Visibility: 10 or more miles (16+ km)
Ceiling: at least 12,000 feet AGL
Clouds: few clouds at 1000 feet AGL
scattered clouds at 25000 feet AGL
Weather: no significant weather observed at this time

METAR text: KTPA 230253Z 32003KT 10SM FEW250 26/23 A3004 RMK AO2 SLP170 T02560233 51015
Conditions at: KTPA (TAMPA , FL, US) observed 0253 UTC 23 October 2019
Temperature: 25.6°C (78°F)
Dewpoint: 23.3°C (74°F) [RH = 87%]
Pressure (altimeter): 30.04 inches Hg (1017.4 mb)
[Sea-level pressure: 1017.0 mb]
Winds: from the NW (320 degrees) at 3 MPH (3 knots; 1.5 m/s)
Visibility: 10 or more miles (16+ km)
Ceiling: at least 12,000 feet AGL
Clouds: few clouds at 25000 feet AGL
Weather: no significant weather observed at this time

METAR text: KTPA 230153Z 31003KT 10SM FEW250 26/23 A3002 RMK AO2 SLP166 T02560228
Conditions at: KTPA (TAMPA , FL, US) observed 0153 UTC 23 October 2019
Temperature: 25.6°C (78°F)
Dewpoint: 22.8°C (73°F) [RH = 85%]
Pressure (altimeter): 30.02 inches Hg (1016.7 mb)
[Sea-level pressure: 1016.6 mb]
Winds: from the NW (310 degrees) at 3 MPH (3 knots; 1.5 m/s)
Visibility: 10 or more miles (16+ km)
Ceiling: at least 12,000 feet AGL
Clouds: few clouds at 25000 feet AGL
Weather: no significant weather observed at this time

METAR text: KTPA 230053Z 00000KT 10SM FEW100 SCT250 26/23 A3001 RMK AO2 SLP162 T02610233
Conditions at: KTPA (TAMPA , FL, US) observed 0053 UTC 23 October 2019
Temperature: 26.1°C (79°F)
Dewpoint: 23.3°C (74°F) [RH = 85%]
Pressure (altimeter): 30.01 inches Hg (1016.3 mb)
[Sea-level pressure: 1016.2 mb]
Winds: calm
Visibility: 10 or more miles (16+ km)
Ceiling: at least 12,000 feet AGL
Clouds: few clouds at 10000 feet AGL
scattered clouds at 25000 feet AGL
Weather: no significant weather observed at this time

METAR text: KTPA 222353Z 32004KT 10SM FEW024 SCT090 SCT250 26/23 A2999 RMK AO2 SLP156 CB DSNT SE T02610228 10311 20261 53012
Conditions at: KTPA (TAMPA , FL, US) observed 2353 UTC 22 October 2019
Temperature: 26.1°C (79°F)
Dewpoint: 22.8°C (73°F) [RH = 82%]
Pressure (altimeter): 29.99 inches Hg (1015.7 mb)
[Sea-level pressure: 1015.6 mb]
Winds: from the NW (320 degrees) at 5 MPH (4 knots; 2.1 m/s)
Visibility: 10 or more miles (16+ km)
Ceiling: at least 12,000 feet AGL
Clouds: few clouds at 2400 feet AGL
scattered clouds at 9000 feet AGL
scattered clouds at 25000 feet AGL
Weather: no significant weather observed at this time

METAR text: KTPA 222253Z 27009KT 10SM FEW015 SCT028TCU BKN250 29/24 A2998 RMK AO2 SLP151 CB DSNT E-SE TCU ALQDS T02890239
Conditions at: KTPA (TAMPA , FL, US) observed 2253 UTC 22 October 2019
Temperature: 28.9°C (84°F)
Dewpoint: 23.9°C (75°F) [RH = 74%]
Pressure (altimeter): 29.98 inches Hg (1015.3 mb)
[Sea-level pressure: 1015.1 mb]
Winds: from the W (270 degrees) at 10 MPH (9 knots; 4.6 m/s)
Visibility: 10 or more miles (16+ km)
Ceiling: 25000 feet AGL
Clouds: few clouds at 1500 feet AGL
scattered clouds at 2800 feet AGL
broken clouds at 25000 feet AGL
Weather: no significant weather observed at this time

METAR text: KTPA 222153Z 26008KT 10SM SCT032 SCT250 29/24 A2996 RMK AO2 SLP146 CB DSNT E TCU DSNT E AND W-NW T02940239
Conditions at: KTPA (TAMPA , FL, US) observed 2153 UTC 22 October 2019
Temperature: 29.4°C (85°F)
Dewpoint: 23.9°C (75°F) [RH = 72%]
Pressure (altimeter): 29.96 inches Hg (1014.6 mb)
[Sea-level pressure: 1014.6 mb]
Winds: from the W (260 degrees) at 9 MPH (8 knots; 4.1 m/s)
Visibility: 10 or more miles (16+ km)
Ceiling: at least 12,000 feet AGL
Clouds: scattered clouds at 3200 feet AGL
scattered clouds at 25000 feet AGL
Weather: no significant weather observed at this time

METAR text: KTPA 222053Z 25008KT 10SM SCT033 SCT250 30/24 A2996 RMK AO2 SLP144 T03000239 55004
Conditions at: KTPA (TAMPA , FL, US) observed 2053 UTC 22 October 2019
Temperature: 30.0°C (86°F)
Dewpoint: 23.9°C (75°F) [RH = 70%]
Pressure (altimeter): 29.96 inches Hg (1014.6 mb)
[Sea-level pressure: 1014.4 mb]
Winds: from the WSW (250 degrees) at 9 MPH (8 knots; 4.1 m/s)
Visibility: 10 or more miles (16+ km)
Ceiling: at least 12,000 feet AGL
Clouds: scattered clouds at 3300 feet AGL
scattered clouds at 25000 feet AGL
Weather: no significant weather observed at this time

METAR text: KTPA 221953Z 26011KT 10SM SCT033 SCT250 31/23 A2996 RMK AO2 SLP144 T03060228
Conditions at: KTPA (TAMPA , FL, US) observed 1953 UTC 22 October 2019
Temperature: 30.6°C (87°F)
Dewpoint: 22.8°C (73°F) [RH = 63%]
Pressure (altimeter): 29.96 inches Hg (1014.6 mb)
[Sea-level pressure: 1014.4 mb]
Winds: from the W (260 degrees) at 13 MPH (11 knots; 5.7 m/s)
Visibility: 10 or more miles (16+ km)
Ceiling: at least 12,000 feet AGL
Clouds: scattered clouds at 3300 feet AGL
scattered clouds at 25000 feet AGL
Weather: no significant weather observed at this time

METAR text: KTPA 221853Z 24009KT 10SM SCT027 SCT250 31/24 A2995 RMK AO2 SLP143 T03060239
Conditions at: KTPA (TAMPA , FL, US) observed 1853 UTC 22 October 2019
Temperature: 30.6°C (87°F)
Dewpoint: 23.9°C (75°F) [RH = 68%]
Pressure (altimeter): 29.95 inches Hg (1014.3 mb)
[Sea-level pressure: 1014.3 mb]
Winds: from the WSW (240 degrees) at 10 MPH (9 knots; 4.6 m/s)
Visibility: 10 or more miles (16+ km)
Ceiling: at least 12,000 feet AGL
Clouds: scattered clouds at 2700 feet AGL
scattered clouds at 25000 feet AGL
Weather: no significant weather observed at this time

METAR text: KTPA 221753Z 24009KT 10SM R01L/5000VP6000FT FEW030 SCT250 31/24 A2997 RMK AO2 SLP148 T03110239 10311 20261 56020
Conditions at: KTPA (TAMPA , FL, US) observed 1753 UTC 22 October 2019
Temperature: 31.1°C (88°F)
Dewpoint: 23.9°C (75°F) [RH = 66%]
Pressure (altimeter): 29.97 inches Hg (1015.0 mb)
[Sea-level pressure: 1014.8 mb]
Winds: from the WSW (240 degrees) at 10 MPH (9 knots; 4.6 m/s)
Visibility: 10 or more miles (16+ km)
Ceiling: at least 12,000 feet AGL
Clouds: few clouds at 3000 feet AGL
scattered clouds at 25000 feet AGL
Weather: no significant weather observed at this time

METAR text: KTPA 221653Z 19010KT 10SM FEW020 SCT250 30/26 A2999 RMK AO2 SLP155 T03000256
Conditions at: KTPA (TAMPA , FL, US) observed 1653 UTC 22 October 2019
Temperature: 30.0°C (86°F)
Dewpoint: 25.6°C (78°F) [RH = 77%]
Pressure (altimeter): 29.99 inches Hg (1015.7 mb)
[Sea-level pressure: 1015.5 mb]
Winds: from the S (190 degrees) at 12 MPH (10 knots; 5.1 m/s)
Visibility: 10 or more miles (16+ km)
Ceiling: at least 12,000 feet AGL
Clouds: few clouds at 2000 feet AGL
scattered clouds at 25000 feet AGL
Weather: no significant weather observed at this time

METAR text: KTPA 221553Z 18011KT 10SM FEW020 30/25 A3001 RMK AO2 SLP160 T03000250
Conditions at: KTPA (TAMPA , FL, US) observed 1553 UTC 22 October 2019
Temperature: 30.0°C (86°F)
Dewpoint: 25.0°C (77°F) [RH = 75%]
Pressure (altimeter): 30.01 inches Hg (1016.3 mb)
[Sea-level pressure: 1016.0 mb]
Winds: from the S (180 degrees) at 13 MPH (11 knots; 5.7 m/s)
Visibility: 10 or more miles (16+ km)
Ceiling: at least 12,000 feet AGL
Clouds: few clouds at 2000 feet AGL
Weather: no significant weather observed at this time

METAR text: KTPA 221453Z 20010KT 10SM SCT015 29/26 A3003 RMK AO2 SLP168 T02890261 53004
Conditions at: KTPA (TAMPA , FL, US) observed 1453 UTC 22 October 2019
Temperature: 28.9°C (84°F)
Dewpoint: 26.1°C (79°F) [RH = 85%]
Pressure (altimeter): 30.03 inches Hg (1017.0 mb)
[Sea-level pressure: 1016.8 mb]
Winds: from the SSW (200 degrees) at 12 MPH (10 knots; 5.1 m/s)
Visibility: 10 or more miles (16+ km)
Ceiling: at least 12,000 feet AGL
Clouds: scattered clouds at 1500 feet AGL
Weather: no significant weather observed at this time

METAR text: KTPA 221353Z 17009KT 10SM FEW012 SCT200 28/26 A3002 RMK AO2 SLP165 T02780256
Conditions at: KTPA (TAMPA , FL, US) observed 1353 UTC 22 October 2019
Temperature: 27.8°C (82°F)
Dewpoint: 25.6°C (78°F) [RH = 88%]
Pressure (altimeter): 30.02 inches Hg (1016.7 mb)
[Sea-level pressure: 1016.5 mb]
Winds: from the S (170 degrees) at 10 MPH (9 knots; 4.6 m/s)
Visibility: 10 or more miles (16+ km)
Ceiling: at least 12,000 feet AGL
Clouds: few clouds at 1200 feet AGL
scattered clouds at 20000 feet AGL
Weather: no significant weather observed at this time

METAR text: KTPA 221253Z 18005KT 8SM FEW012 27/26 A3002 RMK AO2 SLP164 T02670256
Conditions at: KTPA (TAMPA , FL, US) observed 1253 UTC 22 October 2019
Temperature: 26.7°C (80°F)
Dewpoint: 25.6°C (78°F) [RH = 94%]
Pressure (altimeter): 30.02 inches Hg (1016.7 mb)
[Sea-level pressure: 1016.4 mb]
Winds: from the S (180 degrees) at 6 MPH (5 knots; 2.6 m/s)
Visibility: 8 miles (13 km)
Ceiling: at least 12,000 feet AGL
Clouds: few clouds at 1200 feet AGL
Weather: no significant weather observed at this time

METAR text: KTPA 221236Z 17006KT 7SM FEW012 27/26 A3001 RMK AO2 T02670256
Conditions at: KTPA (TAMPA , FL, US) observed 1236 UTC 22 October 2019
Temperature: 26.7°C (80°F)
Dewpoint: 25.6°C (78°F) [RH = 94%]
Pressure (altimeter): 30.01 inches Hg (1016.3 mb)
Winds: from the S (170 degrees) at 7 MPH (6 knots; 3.1 m/s)
Visibility: 7 miles (11 km)
Ceiling: at least 12,000 feet AGL
Clouds: few clouds at 1200 feet AGL
Weather: no significant weather observed at this time

METAR text: KTPA 221153Z 17004KT 4SM BR BKN010 26/25 A3002 RMK AO2 SLP164 70024 T02610250 10261 20256 51010
Conditions at: KTPA (TAMPA , FL, US) observed 1153 UTC 22 October 2019
Temperature: 26.1°C (79°F)
Dewpoint: 25.0°C (77°F) [RH = 94%]
Pressure (altimeter): 30.02 inches Hg (1016.7 mb)
[Sea-level pressure: 1016.4 mb]
Winds: from the S (170 degrees) at 5 MPH (4 knots; 2.1 m/s)
Visibility: 4 miles ( 6 km)
Ceiling: 1000 feet AGL
Clouds: broken clouds at 1000 feet AGL
Weather: BR  (mist)

METAR text: KTPA 221126Z 17003KT 5SM BR FEW005 SCT010 26/25 A3001 RMK AO2 T02610250
Conditions at: KTPA (TAMPA , FL, US) observed 1126 UTC 22 October 2019
Temperature: 26.1°C (79°F)
Dewpoint: 25.0°C (77°F) [RH = 94%]
Pressure (altimeter): 30.01 inches Hg (1016.3 mb)
Winds: from the S (170 degrees) at 3 MPH (3 knots; 1.5 m/s)
Visibility: 5 miles ( 8 km)
Ceiling: at least 12,000 feet AGL
Clouds: few clouds at 500 feet AGL
scattered clouds at 1000 feet AGL
Weather: BR  (mist)

METAR text: KTPA 221112Z COR 15004KT 6SM BR SCT005 BKN010 26/25 A3001 RMK AO2 T02610250
Conditions at: KTPA (TAMPA , FL, US) observed 1112 UTC 22 October 2019
Temperature: 26.1°C (79°F)
Dewpoint: 25.0°C (77°F) [RH = 94%]
Pressure (altimeter): 30.01 inches Hg (1016.3 mb)
Winds: from the SSE (150 degrees) at 5 MPH (4 knots; 2.1 m/s)
Visibility: 6 miles (10 km)
Ceiling: 1000 feet AGL
Clouds: scattered clouds at 500 feet AGL
broken clouds at 1000 feet AGL
Weather: BR  (mist)

Forecast for: KTPA (TAMPA , FL, US)
Text: KTPA 232057Z 2321/2424 04010KT P6SM FEW040 SCT250
Forecast period: 2100 UTC 23 October 2019 to 0400 UTC 24 October 2019
Forecast type: FROM: standard forecast or significant change
Winds: from the NE (40 degrees) at 12 MPH (10 knots; 5.1 m/s)
Visibility: 6 or more miles 10+ km)
Ceiling: at least 12,000 feet AGL
Clouds: few clouds at 4000 feet AGL
scattered clouds at 25000 feet AGL
Weather: no significant weather forecast for this period
Text: FM240400 06006KT P6SM SCT040 SCT250
Forecast period: 0400 to 1000 UTC 24 October 2019
Forecast type: FROM: standard forecast or significant change
Winds: from the ENE (60 degrees) at 7 MPH (6 knots; 3.1 m/s)
Visibility: 6 or more miles 10+ km)
Ceiling: at least 12,000 feet AGL
Clouds: scattered clouds at 4000 feet AGL
scattered clouds at 25000 feet AGL
Weather: no significant weather forecast for this period
Text: FM241000 05005KT P6SM BKN035
Forecast period: 1000 to 1500 UTC 24 October 2019
Forecast type: FROM: standard forecast or significant change
Winds: from the NE (50 degrees) at 6 MPH (5 knots; 2.6 m/s)
Visibility: 6 or more miles 10+ km)
Ceiling: 3500 feet AGL
Clouds: broken clouds at 3500 feet AGL
Weather: no significant weather forecast for this period
Text: FM241500 08008KT P6SM SCT040 BKN250
Forecast period: 1500 UTC 24 October 2019 to 0000 UTC 25 October 2019
Forecast type: FROM: standard forecast or significant change
Winds: from the E (80 degrees) at 9 MPH (8 knots; 4.1 m/s)
Visibility: 6 or more miles 10+ km)
Ceiling: 25000 feet AGL
Clouds: scattered clouds at 4000 feet AGL
broken clouds at 25000 feet AGL
Weather: no significant weather forecast for this period